sensor_id;sensor_type;location;lat;lon;timestamp;pressure;altitude;pressure_sealevel;temperature;humidity
48216;BME280;34005;48.844;10.098;2023-08-06T01:20:31;95953.31;;;15.33;83.13
48216;BME280;34005;48.844;10.098;2023-08-06T01:22:59;95947.81;;;15.34;83.31
48216;BME280;34005;48.844;10.098;2023-08-06T01:25:30;95957.53;;;15.34;83.76
48216;BME280;34005;48.844;10.098;2023-08-06T01:28:04;95953.06;;;15.34;83.96
48216;BME280;34005;48.844;10.098;2023-08-06T01:30:37;95948.16;;;15.38;83.86
48216;BME280;34005;48.844;10.098;2023-08-06T01:33:10;95947.94;;;15.39;84.13
48216;BME280;34005;48.844;10.098;2023-08-06T01:35:44;95941.44;;;15.42;84.13
48216;BME280;34005;48.844;10.098;2023-08-06T01:38:12;95939.59;;;15.42;83.69
48216;BME280;34005;48.844;10.098;2023-08-06T01:40:39;95925.66;;;15.42;83.57
48216;BME280;34005;48.844;10.098;2023-08-06T01:43:07;95938.81;;;15.42;83.58
48216;BME280;34005;48.844;10.098;2023-08-06T01:45:35;95930.44;;;15.45;83.79
48216;BME280;34005;48.844;10.098;2023-08-06T01:48:03;95937.88;;;15.48;84.05
48216;BME280;34005;48.844;10.098;2023-08-06T01:50:31;95930.34;;;15.52;84.40
48216;BME280;34005;48.844;10.098;2023-08-06T01:53:00;95930.69;;;15.55;84.03
48216;BME280;34005;48.844;10.098;2023-08-06T01:55:29;95923.81;;;15.54;84.15
48216;BME280;34005;48.844;10.098;2023-08-06T01:57:56;95920.59;;;15.52;83.58
48216;BME280;34005;48.844;10.098;2023-08-06T02:00:24;95917.66;;;15.49;83.58
48216;BME280;34005;48.844;10.098;2023-08-06T02:02:51;95911.59;;;15.48;83.86
48216;BME280;34005;48.844;10.098;2023-08-06T02:05:20;95914.25;;;15.48;83.86
48216;BME280;34005;48.844;10.098;2023-08-06T02:07:48;95904.75;;;15.47;83.83
48216;BME280;34005;48.844;10.098;2023-08-06T02:10:17;95916.28;;;15.46;84.09
48216;BME280;34005;48.844;10.098;2023-08-06T02:12:44;95904.97;;;15.45;83.64
48216;BME280;34005;48.844;10.098;2023-08-06T02:15:12;95908.63;;;15.44;83.52
48216;BME280;34005;48.844;10.098;2023-08-06T02:17:40;95904.63;;;15.42;83.50
48216;BME280;34005;48.844;10.098;2023-08-06T02:20:08;95898.22;;;15.38;83.83
48216;BME280;34005;48.844;10.098;2023-08-06T02:22:36;95898.66;;;15.35;83.58
48216;BME280;34005;48.844;10.098;2023-08-06T02:25:04;95901.56;;;15.33;83.34
48216;BME280;34005;48.844;10.098;2023-08-06T02:27:33;95892.31;;;15.31;83.14
48216;BME280;34005;48.844;10.098;2023-08-06T02:30:01;95889.09;;;15.29;83.34
48216;BME280;34005;48.844;10.098;2023-08-06T02:32:30;95887.50;;;15.28;83.06
48216;BME280;34005;48.844;10.098;2023-08-06T02:34:58;95883.03;;;15.28;85.00
48216;BME280;34005;48.844;10.098;2023-08-06T02:37:26;95886.56;;;15.34;83.70
48216;BME280;34005;48.844;10.098;2023-08-06T02:39:53;95887.72;;;15.38;83.88
48216;BME280;34005;48.844;10.098;2023-08-06T02:42:21;95882.13;;;15.46;84.89
48216;BME280;34005;48.844;10.098;2023-08-06T02:44:51;95882.22;;;15.51;82.94
48216;BME280;34005;48.844;10.098;2023-08-06T02:47:21;95878.09;;;15.55;82.45
48216;BME280;34005;48.844;10.098;2023-08-06T02:49:49;95885.66;;;15.63;84.23
48216;BME280;34005;48.844;10.098;2023-08-06T02:52:16;95877.06;;;15.68;82.41
48216;BME280;34005;48.844;10.098;2023-08-06T02:54:44;95871.38;;;15.71;81.78
48216;BME280;34005;48.844;10.098;2023-08-06T02:57:12;95870.22;;;15.79;82.90
48216;BME280;34005;48.844;10.098;2023-08-06T02:59:39;95876.03;;;15.81;81.38
48216;BME280;34005;48.844;10.098;2023-08-06T03:02:08;95873.97;;;15.83;81.68
48216;BME280;34005;48.844;10.098;2023-08-06T03:04:36;95862.75;;;15.88;82.00
48216;BME280;34005;48.844;10.098;2023-08-06T03:07:04;95864.13;;;15.90;80.23
48216;BME280;34005;48.844;10.098;2023-08-06T03:09:31;95854.88;;;15.88;79.35
48216;BME280;34005;48.844;10.098;2023-08-06T03:11:59;95859.00;;;15.83;79.54
48216;BME280;34005;48.844;10.098;2023-08-06T03:14:27;95855.00;;;15.81;81.36
48216;BME280;34005;48.844;10.098;2023-08-06T03:16:54;95857.06;;;15.79;80.01
48216;BME280;34005;48.844;10.098;2023-08-06T03:19:23;95860.16;;;15.76;80.53
48216;BME280;34005;48.844;10.098;2023-08-06T03:21:51;95853.31;;;15.75;79.75
48216;BME280;34005;48.844;10.098;2023-08-06T03:24:19;95863.47;;;15.71;79.31
48216;BME280;34005;48.844;10.098;2023-08-06T03:26:46;95852.34;;;15.69;79.38
48216;BME280;34005;48.844;10.098;2023-08-06T03:29:14;95846.69;;;15.72;79.92
48216;BME280;34005;48.844;10.098;2023-08-06T03:31:42;95840.59;;;15.72;79.56
48216;BME280;34005;48.844;10.098;2023-08-06T03:34:09;95832.00;;;15.76;79.27
48216;BME280;34005;48.844;10.098;2023-08-06T03:36:38;95842.88;;;15.80;79.81
48216;BME280;34005;48.844;10.098;2023-08-06T03:39:06;95847.66;;;15.83;78.82
48216;BME280;34005;48.844;10.098;2023-08-06T03:41:34;95846.41;;;15.85;80.82
48216;BME280;34005;48.844;10.098;2023-08-06T03:44:00;95845.47;;;15.92;82.16
48216;BME280;34005;48.844;10.098;2023-08-06T03:46:30;95846.59;;;15.96;81.20
48216;BME280;34005;48.844;10.098;2023-08-06T03:49:00;95845.81;;;15.95;80.08
48216;BME280;34005;48.844;10.098;2023-08-06T03:51:28;95843.25;;;16.00;81.88
48216;BME280;34005;48.844;10.098;2023-08-06T03:53:57;95842.00;;;16.03;79.63
48216;BME280;34005;48.844;10.098;2023-08-06T03:56:24;95841.69;;;15.99;78.68
48216;BME280;34005;48.844;10.098;2023-08-06T03:58:52;95844.31;;;15.99;78.95
48216;BME280;34005;48.844;10.098;2023-08-06T04:01:19;95841.69;;;15.99;78.14
48216;BME280;34005;48.844;10.098;2023-08-06T04:03:47;95839.03;;;15.99;79.36
48216;BME280;34005;48.844;10.098;2023-08-06T04:06:15;95838.25;;;15.99;78.66
48216;BME280;34005;48.844;10.098;2023-08-06T04:08:42;95834.56;;;16.00;78.80
48216;BME280;34005;48.844;10.098;2023-08-06T04:11:11;95831.16;;;15.99;78.77
48216;BME280;34005;48.844;10.098;2023-08-06T04:13:42;95840.31;;;15.97;78.62
48216;BME280;34005;48.844;10.098;2023-08-06T04:16:10;95834.72;;;15.93;79.02
48216;BME280;34005;48.844;10.098;2023-08-06T04:18:37;95835.75;;;15.92;77.41
48216;BME280;34005;48.844;10.098;2023-08-06T04:21:05;95830.88;;;15.84;76.74
48216;BME280;34005;48.844;10.098;2023-08-06T04:23:33;95829.72;;;15.80;78.29
48216;BME280;34005;48.844;10.098;2023-08-06T04:26:00;95826.31;;;15.79;77.72
48216;BME280;34005;48.844;10.098;2023-08-06T04:28:29;95829.63;;;15.75;77.66
48216;BME280;34005;48.844;10.098;2023-08-06T04:30:58;95833.72;;;15.71;77.24
48216;BME280;34005;48.844;10.098;2023-08-06T04:33:26;95829.41;;;15.64;77.06
48216;BME280;34005;48.844;10.098;2023-08-06T04:35:54;95832.16;;;15.58;76.90
48216;BME280;34005;48.844;10.098;2023-08-06T04:38:23;95829.19;;;15.54;76.92
48216;BME280;34005;48.844;10.098;2023-08-06T04:40:51;95824.19;;;15.53;78.04
48216;BME280;34005;48.844;10.098;2023-08-06T04:43:19;95831.59;;;15.56;77.27
48216;BME280;34005;48.844;10.098;2023-08-06T04:45:49;95818.22;;;15.57;78.63
48216;BME280;34005;48.844;10.098;2023-08-06T04:48:17;95823.00;;;15.60;78.49
48216;BME280;34005;48.844;10.098;2023-08-06T04:50:45;95822.78;;;15.62;78.34
48216;BME280;34005;48.844;10.098;2023-08-06T04:53:13;95823.56;;;15.62;77.21
48216;BME280;34005;48.844;10.098;2023-08-06T04:55:42;95829.41;;;15.64;77.51
48216;BME280;34005;48.844;10.098;2023-08-06T04:58:10;95827.91;;;15.69;78.52
48216;BME280;34005;48.844;10.098;2023-08-06T05:00:37;95828.84;;;15.74;78.32
48216;BME280;34005;48.844;10.098;2023-08-06T05:03:06;95832.34;;;15.80;79.65
48216;BME280;34005;48.844;10.098;2023-08-06T05:05:34;95831.44;;;15.86;80.42
48216;BME280;34005;48.844;10.098;2023-08-06T05:08:02;95826.16;;;15.86;77.37
48216;BME280;34005;48.844;10.098;2023-08-06T05:10:30;95824.09;;;15.88;77.99
48216;BME280;34005;48.844;10.098;2023-08-06T05:12:57;95822.84;;;15.91;77.63
48216;BME280;34005;48.844;10.098;2023-08-06T05:15:25;95828.88;;;15.91;76.51
48216;BME280;34005;48.844;10.098;2023-08-06T05:17:53;95828.09;;;15.91;76.26
48216;BME280;34005;48.844;10.098;2023-08-06T05:20:22;95832.66;;;15.95;79.41
48216;BME280;34005;48.844;10.098;2023-08-06T05:22:49;95828.44;;;15.94;77.25
48216;BME280;34005;48.844;10.098;2023-08-06T05:25:17;95832.09;;;15.93;77.68
48216;BME280;34005;48.844;10.098;2023-08-06T05:27:45;95826.81;;;15.93;77.64
48216;BME280;34005;48.844;10.098;2023-08-06T05:30:12;95827.53;;;15.89;75.17
48216;BME280;34005;48.844;10.098;2023-08-06T05:32:40;95819.28;;;15.85;75.17
48216;BME280;34005;48.844;10.098;2023-08-06T05:35:08;95828.31;;;15.89;77.42
48216;BME280;34005;48.844;10.098;2023-08-06T05:37:37;95821.56;;;15.93;78.07
48216;BME280;34005;48.844;10.098;2023-08-06T05:40:05;95827.06;;;15.92;76.17
48216;BME280;34005;48.844;10.098;2023-08-06T05:42:33;95841.34;;;15.96;78.54
48216;BME280;34005;48.844;10.098;2023-08-06T05:45:01;95833.22;;;15.97;76.85
48216;BME280;34005;48.844;10.098;2023-08-06T05:47:29;95835.63;;;15.99;76.47
48216;BME280;34005;48.844;10.098;2023-08-06T05:49:56;95834.00;;;15.98;78.33
48216;BME280;34005;48.844;10.098;2023-08-06T05:52:24;95831.63;;;15.96;78.60
48216;BME280;34005;48.844;10.098;2023-08-06T05:54:53;95834.16;;;15.91;78.47
48216;BME280;34005;48.844;10.098;2023-08-06T05:57:21;95834.16;;;15.91;77.96
48216;BME280;34005;48.844;10.098;2023-08-06T05:59:49;95835.28;;;15.95;79.81
48216;BME280;34005;48.844;10.098;2023-08-06T06:02:16;95831.94;;;16.00;77.50
48216;BME280;34005;48.844;10.098;2023-08-06T06:04:45;95829.88;;;16.02;77.53
48216;BME280;34005;48.844;10.098;2023-08-06T06:07:12;95831.91;;;16.12;78.83
48216;BME280;34005;48.844;10.098;2023-08-06T06:09:40;95842.03;;;16.20;79.68
48216;BME280;34005;48.844;10.098;2023-08-06T06:12:10;95845.81;;;16.24;80.08
48216;BME280;34005;48.844;10.098;2023-08-06T06:14:37;95838.69;;;16.24;79.38
48216;BME280;34005;48.844;10.098;2023-08-06T06:17:05;95842.88;;;16.20;77.01
48216;BME280;34005;48.844;10.098;2023-08-06T06:19:33;95845.16;;;16.17;78.49
48216;BME280;34005;48.844;10.098;2023-08-06T06:22:00;95852.47;;;16.15;79.28
48216;BME280;34005;48.844;10.098;2023-08-06T06:24:28;95850.34;;;16.12;77.89
48216;BME280;34005;48.844;10.098;2023-08-06T06:26:56;95854.22;;;16.09;77.43
48216;BME280;34005;48.844;10.098;2023-08-06T06:29:25;95847.84;;;16.05;77.04
48216;BME280;34005;48.844;10.098;2023-08-06T06:31:53;95848.06;;;16.03;77.38
48216;BME280;34005;48.844;10.098;2023-08-06T06:34:21;95850.69;;;16.03;78.08
48216;BME280;34005;48.844;10.098;2023-08-06T06:36:49;95852.84;;;16.06;78.65
48216;BME280;34005;48.844;10.098;2023-08-06T06:39:17;95849.78;;;16.10;78.96
48216;BME280;34005;48.844;10.098;2023-08-06T06:41:45;95849.28;;;16.13;79.14
48216;BME280;34005;48.844;10.098;2023-08-06T06:44:13;95850.34;;;16.12;77.48
48216;BME280;34005;48.844;10.098;2023-08-06T06:46:42;95858.78;;;16.14;78.34
48216;BME280;34005;48.844;10.098;2023-08-06T06:49:10;95845.72;;;16.19;78.34
48216;BME280;34005;48.844;10.098;2023-08-06T06:51:37;95852.13;;;16.23;78.96
48216;BME280;34005;48.844;10.098;2023-08-06T06:54:06;95848.44;;;16.24;77.72
48216;BME280;34005;48.844;10.098;2023-08-06T06:56:33;95856.09;;;16.25;76.22
48216;BME280;34005;48.844;10.098;2023-08-06T06:59:01;95848.44;;;16.24;76.92
48216;BME280;34005;48.844;10.098;2023-08-06T07:01:29;95847.41;;;16.25;76.47
48216;BME280;34005;48.844;10.098;2023-08-06T07:03:58;95856.44;;;16.29;78.38
48216;BME280;34005;48.844;10.098;2023-08-06T07:06:25;95847.50;;;16.30;78.39
48216;BME280;34005;48.844;10.098;2023-08-06T07:08:53;95846.22;;;16.33;76.89
48216;BME280;34005;48.844;10.098;2023-08-06T07:11:21;95848.06;;;16.32;78.18
48216;BME280;34005;48.844;10.098;2023-08-06T07:13:50;95848.06;;;16.32;76.72
48216;BME280;34005;48.844;10.098;2023-08-06T07:16:23;95847.56;;;16.35;77.61
48216;BME280;34005;48.844;10.098;2023-08-06T07:18:51;95854.22;;;16.38;75.88
48216;BME280;34005;48.844;10.098;2023-08-06T07:21:21;95840.00;;;16.39;77.17
48216;BME280;34005;48.844;10.098;2023-08-06T07:23:48;95842.09;;;16.37;75.30
48216;BME280;34005;48.844;10.098;2023-08-06T07:26:16;95849.19;;;16.36;76.91
48216;BME280;34005;48.844;10.098;2023-08-06T07:28:44;95855.03;;;16.38;77.69
48216;BME280;34005;48.844;10.098;2023-08-06T07:31:12;95860.06;;;16.40;77.93
48216;BME280;34005;48.844;10.098;2023-08-06T07:33:39;95862.44;;;16.41;77.42
48216;BME280;34005;48.844;10.098;2023-08-06T07:36:08;95867.94;;;16.40;75.04
48216;BME280;34005;48.844;10.098;2023-08-06T07:38:37;95861.41;;;16.42;76.44
48216;BME280;34005;48.844;10.098;2023-08-06T07:41:05;95863.34;;;16.47;75.79
48216;BME280;34005;48.844;10.098;2023-08-06T07:43:33;95859.97;;;16.52;77.45
48216;BME280;34005;48.844;10.098;2023-08-06T07:46:02;95862.69;;;16.57;77.45
48216;BME280;34005;48.844;10.098;2023-08-06T07:48:29;95868.75;;;16.57;76.54
48216;BME280;34005;48.844;10.098;2023-08-06T07:50:57;95871.53;;;16.51;76.40
48216;BME280;34005;48.844;10.098;2023-08-06T07:53:26;95873.06;;;16.46;75.91
48216;BME280;34005;48.844;10.098;2023-08-06T07:55:57;95867.25;;;16.44;76.05
48216;BME280;34005;48.844;10.098;2023-08-06T07:58:25;95862.06;;;16.50;76.51
48216;BME280;34005;48.844;10.098;2023-08-06T08:00:53;95865.25;;;16.52;77.07
48216;BME280;34005;48.844;10.098;2023-08-06T08:03:20;95870.03;;;16.55;76.65
48216;BME280;34005;48.844;10.098;2023-08-06T08:05:48;95861.41;;;16.59;76.79
48216;BME280;34005;48.844;10.098;2023-08-06T08:08:16;95857.53;;;16.62;75.05
48216;BME280;34005;48.844;10.098;2023-08-06T08:10:43;95865.75;;;16.65;75.29
48216;BME280;34005;48.844;10.098;2023-08-06T08:13:13;95859.53;;;16.72;75.96
48216;BME280;34005;48.844;10.098;2023-08-06T08:15:40;95861.44;;;16.76;73.73
48216;BME280;34005;48.844;10.098;2023-08-06T08:18:08;95863.06;;;16.77;73.90
48216;BME280;34005;48.844;10.098;2023-08-06T08:20:35;95864.63;;;16.78;75.48
48216;BME280;34005;48.844;10.098;2023-08-06T08:23:03;95870.38;;;16.75;74.79
48216;BME280;34005;48.844;10.098;2023-08-06T08:25:32;95879.00;;;16.71;75.03
48216;BME280;34005;48.844;10.098;2023-08-06T08:28:00;95865.50;;;16.67;73.98
48216;BME280;34005;48.844;10.098;2023-08-06T08:30:29;95876.53;;;16.64;72.21
48216;BME280;34005;48.844;10.098;2023-08-06T08:32:57;95866.44;;;16.61;74.00
48216;BME280;34005;48.844;10.098;2023-08-06T08:35:25;95872.78;;;16.60;74.36
48216;BME280;34005;48.844;10.098;2023-08-06T08:37:52;95871.72;;;16.61;74.98
48216;BME280;34005;48.844;10.098;2023-08-06T08:40:23;95872.50;;;16.61;73.34
48216;BME280;34005;48.844;10.098;2023-08-06T08:42:58;95878.34;;;16.63;75.37
48216;BME280;34005;48.844;10.098;2023-08-06T08:45:33;95874.53;;;16.71;74.52
48216;BME280;34005;48.844;10.098;2023-08-06T08:48:02;95873.03;;;16.75;72.15
48216;BME280;34005;48.844;10.098;2023-08-06T08:50:30;95876.22;;;16.77;72.96
48216;BME280;34005;48.844;10.098;2023-08-06T08:52:58;95872.34;;;16.80;73.58
48216;BME280;34005;48.844;10.098;2023-08-06T08:55:25;95873.47;;;16.84;73.48
48216;BME280;34005;48.844;10.098;2023-08-06T08:57:53;95868.19;;;16.84;72.55
48216;BME280;34005;48.844;10.098;2023-08-06T09:00:21;95871.06;;;16.82;73.31
48216;BME280;34005;48.844;10.098;2023-08-06T09:02:50;95875.97;;;16.79;70.56
48216;BME280;34005;48.844;10.098;2023-08-06T09:05:20;95870.38;;;16.75;72.03
48216;BME280;34005;48.844;10.098;2023-08-06T09:07:48;95874.84;;;16.75;72.24
48216;BME280;34005;48.844;10.098;2023-08-06T09:10:17;95876.13;;;16.72;71.37
48216;BME280;34005;48.844;10.098;2023-08-06T09:12:46;95869.25;;;16.71;72.55
48216;BME280;34005;48.844;10.098;2023-08-06T09:15:14;95873.47;;;16.72;72.47
48216;BME280;34005;48.844;10.098;2023-08-06T09:17:42;95876.94;;;16.73;72.60
48216;BME280;34005;48.844;10.098;2023-08-06T09:20:12;95887.47;;;16.73;72.87
48216;BME280;34005;48.844;10.098;2023-08-06T09:22:41;95879.81;;;16.71;72.95
48216;BME280;34005;48.844;10.098;2023-08-06T09:25:08;95873.41;;;16.67;71.68
48216;BME280;34005;48.844;10.098;2023-08-06T09:27:37;95874.91;;;16.63;73.51
48216;BME280;34005;48.844;10.098;2023-08-06T09:30:06;95871.50;;;16.62;74.01
48216;BME280;34005;48.844;10.098;2023-08-06T09:32:47;95873.75;;;16.71;74.95
48216;BME280;34005;48.844;10.098;2023-08-06T09:35:19;95877.25;;;16.76;74.09
48216;BME280;34005;48.844;10.098;2023-08-06T09:37:46;95876.31;;;16.82;73.30
48216;BME280;34005;48.844;10.098;2023-08-06T09:40:25;95879.28;;;16.86;73.82
48216;BME280;34005;48.844;10.098;2023-08-06T09:42:54;95868.97;;;16.84;72.36
48216;BME280;34005;48.844;10.098;2023-08-06T09:45:21;95865.78;;;16.82;73.97
48216;BME280;34005;48.844;10.098;2023-08-06T09:47:50;95891.34;;;16.82;73.82
48216;BME280;34005;48.844;10.098;2023-08-06T09:50:19;95877.59;;;16.80;74.34
48216;BME280;34005;48.844;10.098;2023-08-06T09:52:47;95887.78;;;16.76;73.71
48216;BME280;34005;48.844;10.098;2023-08-06T09:55:15;95878.84;;;16.77;72.25
48216;BME280;34005;48.844;10.098;2023-08-06T09:57:43;95875.41;;;16.77;72.44
48216;BME280;34005;48.844;10.098;2023-08-06T10:00:11;95864.19;;;16.81;72.19
48216;BME280;34005;48.844;10.098;2023-08-06T10:02:40;95865.47;;;16.96;72.91
48216;BME280;34005;48.844;10.098;2023-08-06T10:05:08;95865.22;;;17.14;72.58
48216;BME280;34005;48.844;10.098;2023-08-06T10:07:37;95860.00;;;17.36;72.05
48216;BME280;34005;48.844;10.098;2023-08-06T10:10:07;95883.41;;;17.49;71.93
48216;BME280;34005;48.844;10.098;2023-08-06T10:12:38;95883.28;;;17.61;70.62
48216;BME280;34005;48.844;10.098;2023-08-06T10:15:10;95880.47;;;17.68;69.19
48216;BME280;34005;48.844;10.098;2023-08-06T10:17:39;95872.00;;;17.66;68.18
48216;BME280;34005;48.844;10.098;2023-08-06T10:20:17;95876.97;;;17.62;70.12
48216;BME280;34005;48.844;10.098;2023-08-06T10:23:01;95869.22;;;17.56;68.60
48216;BME280;34005;48.844;10.098;2023-08-06T10:25:32;95871.25;;;17.48;70.95
48216;BME280;34005;48.844;10.098;2023-08-06T10:28:07;95873.25;;;17.41;70.87
48216;BME280;34005;48.844;10.098;2023-08-06T10:30:42;95874.28;;;17.40;71.25
48216;BME280;34005;48.844;10.098;2023-08-06T10:33:09;95873.81;;;17.43;72.00
48216;BME280;34005;48.844;10.098;2023-08-06T10:35:40;95881.00;;;17.48;72.68
48216;BME280;34005;48.844;10.098;2023-08-06T10:38:14;95875.94;;;17.46;70.76
48216;BME280;34005;48.844;10.098;2023-08-06T10:40:48;95879.88;;;17.44;70.38
48216;BME280;34005;48.844;10.098;2023-08-06T10:43:25;95865.13;;;17.43;69.65
48216;BME280;34005;48.844;10.098;2023-08-06T10:46:02;95864.13;;;17.49;71.67
48216;BME280;34005;48.844;10.098;2023-08-06T10:48:31;95865.16;;;17.48;70.42
48216;BME280;34005;48.844;10.098;2023-08-06T10:51:01;95876.75;;;17.47;72.06
48216;BME280;34005;48.844;10.098;2023-08-06T10:53:30;95881.50;;;17.45;73.32
48216;BME280;34005;48.844;10.098;2023-08-06T10:56:00;95881.09;;;17.36;71.37
48216;BME280;34005;48.844;10.098;2023-08-06T10:58:31;95876.69;;;17.25;72.80
48216;BME280;34005;48.844;10.098;2023-08-06T11:00:59;95875.28;;;17.17;72.15
48216;BME280;34005;48.844;10.098;2023-08-06T11:03:26;95871.03;;;17.16;72.75
48216;BME280;34005;48.844;10.098;2023-08-06T11:05:54;95869.53;;;17.20;72.88
48216;BME280;34005;48.844;10.098;2023-08-06T11:08:24;95859.25;;;17.19;73.34
48216;BME280;34005;48.844;10.098;2023-08-06T11:10:53;95864.69;;;17.12;74.70
48216;BME280;34005;48.844;10.098;2023-08-06T11:13:29;95864.50;;;17.02;74.16
48216;BME280;34005;48.844;10.098;2023-08-06T11:15:58;95869.53;;;16.86;74.94
48216;BME280;34005;48.844;10.098;2023-08-06T11:18:29;95868.00;;;16.74;75.14
48216;BME280;34005;48.844;10.098;2023-08-06T11:20:58;95862.88;;;16.67;74.80
48216;BME280;34005;48.844;10.098;2023-08-06T11:23:26;95880.97;;;16.63;76.77
48216;BME280;34005;48.844;10.098;2023-08-06T11:25:56;95887.53;;;16.61;75.44
48216;BME280;34005;48.844;10.098;2023-08-06T11:28:25;95891.19;;;16.60;76.72
48216;BME280;34005;48.844;10.098;2023-08-06T11:30:53;95887.91;;;16.53;75.09
48216;BME280;34005;48.844;10.098;2023-08-06T11:33:22;95880.72;;;16.48;76.38
48216;BME280;34005;48.844;10.098;2023-08-06T11:35:52;95867.91;;;16.68;76.68
48216;BME280;34005;48.844;10.098;2023-08-06T11:38:20;95872.25;;;16.92;76.55
48216;BME280;34005;48.844;10.098;2023-08-06T11:40:47;95869.06;;;17.06;75.17
48216;BME280;34005;48.844;10.098;2023-08-06T11:43:17;95877.97;;;17.22;75.56
48216;BME280;34005;48.844;10.098;2023-08-06T11:45:45;95861.81;;;17.36;73.79
48216;BME280;34005;48.844;10.098;2023-08-06T11:48:59;95861.91;;;17.41;74.46
48216;BME280;34005;48.844;10.098;2023-08-06T11:51:27;95857.66;;;17.40;74.97
48216;BME280;34005;48.844;10.098;2023-08-06T11:53:55;95870.56;;;17.36;74.45
48216;BME280;34005;48.844;10.098;2023-08-06T11:56:24;95880.53;;;17.34;74.68
48216;BME280;34005;48.844;10.098;2023-08-06T11:58:54;95873.84;;;17.26;72.81
48216;BME280;34005;48.844;10.098;2023-08-06T12:01:21;95880.00;;;17.15;74.39
48216;BME280;34005;48.844;10.098;2023-08-06T12:03:49;95887.28;;;17.08;73.81
48216;BME280;34005;48.844;10.098;2023-08-06T12:06:17;95892.59;;;16.96;73.68
48216;BME280;34005;48.844;10.098;2023-08-06T12:08:45;95901.31;;;16.80;74.71
48216;BME280;34005;48.844;10.098;2023-08-06T12:11:12;95916.81;;;16.64;74.36
48216;BME280;34005;48.844;10.098;2023-08-06T12:13:40;95916.97;;;16.58;75.26
48216;BME280;34005;48.844;10.098;2023-08-06T12:16:10;95918.56;;;16.59;74.37
48216;BME280;34005;48.844;10.098;2023-08-06T12:18:37;95916.72;;;16.59;74.21
48216;BME280;34005;48.844;10.098;2023-08-06T12:21:05;95932.84;;;16.63;74.95
48216;BME280;34005;48.844;10.098;2023-08-06T12:23:32;95927.56;;;16.63;73.46
48216;BME280;34005;48.844;10.098;2023-08-06T12:26:01;95915.47;;;16.62;73.55
48216;BME280;34005;48.844;10.098;2023-08-06T12:28:28;95942.34;;;16.64;74.57
48216;BME280;34005;48.844;10.098;2023-08-06T12:30:56;95925.44;;;16.60;74.45
48216;BME280;34005;48.844;10.098;2023-08-06T12:33:25;95925.56;;;16.53;73.00
48216;BME280;34005;48.844;10.098;2023-08-06T12:35:52;95926.25;;;16.48;73.68
48216;BME280;34005;48.844;10.098;2023-08-06T12:38:21;95923.31;;;16.45;73.29
48216;BME280;34005;48.844;10.098;2023-08-06T12:40:49;95933.84;;;16.45;74.33
48216;BME280;34005;48.844;10.098;2023-08-06T12:43:17;95938.53;;;16.43;74.03
48216;BME280;34005;48.844;10.098;2023-08-06T12:45:44;95945.06;;;16.40;74.32
48216;BME280;34005;48.844;10.098;2023-08-06T12:48:13;95956.53;;;16.34;73.04
48216;BME280;34005;48.844;10.098;2023-08-06T12:50:42;95975.44;;;16.31;71.93
48216;BME280;34005;48.844;10.098;2023-08-06T12:53:09;95969.25;;;16.25;72.82
48216;BME280;34005;48.844;10.098;2023-08-06T12:55:37;95968.69;;;16.23;73.12
48216;BME280;34005;48.844;10.098;2023-08-06T12:58:07;95975.53;;;16.24;73.03
48216;BME280;34005;48.844;10.098;2023-08-06T13:00:34;95980.38;;;16.16;72.36
48216;BME280;34005;48.844;10.098;2023-08-06T13:03:02;95982.22;;;16.03;74.15
48216;BME280;34005;48.844;10.098;2023-08-06T13:05:30;95994.25;;;15.99;74.86
48216;BME280;34005;48.844;10.098;2023-08-06T13:07:59;95988.50;;;16.02;75.10
48216;BME280;34005;48.844;10.098;2023-08-06T13:10:26;96000.66;;;16.03;73.75
48216;BME280;34005;48.844;10.098;2023-08-06T13:12:55;95997.91;;;15.98;72.69
48216;BME280;34005;48.844;10.098;2023-08-06T13:15:23;95990.94;;;15.92;73.78
48216;BME280;34005;48.844;10.098;2023-08-06T13:17:50;96007.63;;;15.86;72.97
48216;BME280;34005;48.844;10.098;2023-08-06T13:20:18;96015.88;;;15.78;73.41
48216;BME280;34005;48.844;10.098;2023-08-06T13:22:46;95998.72;;;15.75;73.42
48216;BME280;34005;48.844;10.098;2023-08-06T13:25:18;96006.13;;;15.66;73.19
48216;BME280;34005;48.844;10.098;2023-08-06T13:27:46;96010.44;;;15.61;74.04
48216;BME280;34005;48.844;10.098;2023-08-06T13:30:14;96013.06;;;15.61;75.57
48216;BME280;34005;48.844;10.098;2023-08-06T13:32:41;96013.91;;;15.61;75.32
48216;BME280;34005;48.844;10.098;2023-08-06T13:35:09;96018.34;;;15.61;74.73
48216;BME280;34005;48.844;10.098;2023-08-06T13:37:37;96019.16;;;15.61;75.33
48216;BME280;34005;48.844;10.098;2023-08-06T13:40:06;96019.72;;;15.63;75.62
48216;BME280;34005;48.844;10.098;2023-08-06T13:42:36;96028.06;;;15.60;75.04
48216;BME280;34005;48.844;10.098;2023-08-06T13:45:04;96032.41;;;15.55;75.00
48216;BME280;34005;48.844;10.098;2023-08-06T13:47:32;96031.47;;;15.49;75.52
48216;BME280;34005;48.844;10.098;2023-08-06T13:50:00;96028.28;;;15.47;75.61
48216;BME280;34005;48.844;10.098;2023-08-06T13:52:28;96027.13;;;15.43;75.43
48216;BME280;34005;48.844;10.098;2023-08-06T13:54:55;96025.97;;;15.39;75.86
48216;BME280;34005;48.844;10.098;2023-08-06T13:57:23;96029.50;;;15.33;75.75
48216;BME280;34005;48.844;10.098;2023-08-06T13:59:52;96032.56;;;15.30;75.43
48216;BME280;34005;48.844;10.098;2023-08-06T14:02:19;96036.81;;;15.31;77.40
48216;BME280;34005;48.844;10.098;2023-08-06T14:04:47;96042.66;;;15.33;77.20
48216;BME280;34005;48.844;10.098;2023-08-06T14:07:15;96039.56;;;15.36;77.96
48216;BME280;34005;48.844;10.098;2023-08-06T14:09:42;96043.34;;;15.40;77.50
48216;BME280;34005;48.844;10.098;2023-08-06T14:12:10;96039.25;;;15.44;77.33
48216;BME280;34005;48.844;10.098;2023-08-06T14:14:38;96038.78;;;15.47;76.93
48216;BME280;34005;48.844;10.098;2023-08-06T14:17:07;96040.41;;;15.48;76.98